Terminal Aerodrome Forecast
Issued by NWS Portland, OR

Current Version | Previous Version | Text Only | Print | Product List | Glossary On
Versions: 1 2 3 4 5 6 7 8 9 10 11 12 13 14 15 16 17
000
FTUS46 KPQR 301140
TAFAST
TAF
KAST 301140Z 3012/0112 34008KT P6SM OVC035
     FM301400 36006KT P6SM SCT028 BKN035
     FM302000 32012KT P6SM SCT035
     FM010300 34008KT P6SM SCT030
     FM010800 03004KT P6SM SKC=

USA.gov is the U.S. government's official web portal to all federal, state and local government web resources and services.